Time;durP1;ratioP1;P1;durP2;ratioP2;P2;SDS_P1;SDS_P2;PMS_P1;PMS_P2;Temp;Humidity;BMP_temperature;BMP_pressure;BME280_temperature;BME280_humidity;BME280_pressure;Samples;Min_cycle;Max_cycle;Signal;HPM_P1;HPM_P2
2022/04/29 00:03:09;;;;;;;22.70;13.30;;;;;;;5.22;63.49;99752.86;221005;1274;22950;-73
2022/04/29 00:08:13;;;;;;;22.40;13.10;;;;;;;5.10;63.91;99751.02;220668;1274;482272;-72
2022/04/29 00:13:15;;;;;;;20.70;12.00;;;;;;;5.01;64.19;99749.54;221117;1274;25476;-72
2022/04/29 00:18:17;;;;;;;20.50;11.10;;;;;;;4.94;64.35;99748.20;220952;1274;25250;-71
2022/04/29 00:23:21;;;;;;;21.00;10.60;;;;;;;4.92;64.58;99745.65;221199;1274;22691;-72
2022/04/29 00:28:23;;;;;;;18.00;10.60;;;;;;;4.93;64.80;99751.13;221129;1274;22557;-72
2022/04/29 00:33:29;;;;;;;21.50;12.00;;;;;;;4.90;65.03;99749.45;220923;1274;22576;-72
2022/04/29 00:38:31;;;;;;;19.20;11.00;;;;;;;4.83;65.05;99747.80;220931;1274;22711;-72
2022/04/29 00:43:34;;;;;;;18.70;10.90;;;;;;;4.75;65.29;99748.06;220916;1274;25415;-71
2022/04/29 00:48:36;;;;;;;17.10;11.50;;;;;;;4.66;65.50;99746.77;221000;1274;22536;-72
2022/04/29 00:53:38;;;;;;;16.60;10.80;;;;;;;4.56;65.82;99746.00;220894;1276;22586;-72
2022/04/29 00:58:45;;;;;;;17.90;10.80;;;;;;;4.48;65.95;99743.90;221525;1275;25404;-72
2022/04/29 01:03:49;;;;;;;18.60;10.30;;;;;;;4.42;66.30;99740.55;221103;1275;23302;-71
2022/04/29 01:08:52;;;;;;;17.90;10.40;;;;;;;4.38;66.54;99741.45;221767;1273;22686;-72
2022/04/29 01:13:54;;;;;;;16.50;10.70;;;;;;;4.35;66.86;99740.64;221120;1274;22582;-72
2022/04/29 01:18:57;;;;;;;16.80;10.80;;;;;;;4.31;67.15;99735.00;221262;1274;22568;-71
2022/04/29 01:24:12;;;;;;;18.40;11.40;;;;;;;4.26;67.27;99733.49;219565;1274;24224;-70
2022/04/29 01:29:16;;;;;;;21.80;11.60;;;;;;;4.18;67.48;99729.73;220284;1274;22697;-71
2022/04/29 01:34:19;;;;;;;18.40;10.40;;;;;;;4.11;67.90;99725.70;221142;1274;22494;-72
2022/04/29 01:39:21;;;;;;;18.20;11.00;;;;;;;4.06;68.14;99726.09;221172;1275;24264;-72
2022/04/29 01:44:23;;;;;;;17.30;11.60;;;;;;;4.01;68.33;99723.26;221150;1274;22587;-72
2022/04/29 01:49:26;;;;;;;18.30;11.70;;;;;;;3.98;68.50;99717.89;220802;1273;22571;-71
2022/04/29 01:54:30;;;;;;;17.10;11.90;;;;;;;3.94;68.64;99720.67;221218;1274;22596;-71
2022/04/29 01:59:35;;;;;;;21.90;11.80;;;;;;;3.91;68.87;99718.15;221079;1273;24109;-71
2022/04/29 02:04:54;;;;;;;19.20;12.40;;;;;;;3.86;68.98;99712.77;221033;1274;22765;-71
2022/04/29 02:09:58;;;;;;;18.70;12.30;;;;;;;3.83;69.35;99717.16;220796;1273;24313;-72
2022/04/29 02:15:19;;;;;;;18.30;12.60;;;;;;;3.79;69.45;99708.67;221006;1274;22635;-70
2022/04/29 02:20:44;;;;;;;21.90;11.90;;;;;;;3.76;69.63;99715.00;220882;1274;22538;-72
2022/04/29 02:25:46;;;;;;;20.20;11.60;;;;;;;3.70;69.81;99716.69;221069;1274;24297;-71
2022/04/29 02:30:49;;;;;;;20.20;12.10;;;;;;;3.62;69.96;99714.28;221070;1274;24262;-70
2022/04/29 02:35:53;;;;;;;20.20;13.20;;;;;;;3.54;70.14;99716.56;221433;1274;22562;-70
2022/04/29 02:40:55;;;;;;;18.70;12.10;;;;;;;3.47;70.29;99715.77;221200;1274;24279;-72
2022/04/29 02:45:58;;;;;;;22.40;13.50;;;;;;;3.41;70.46;99710.64;221799;1274;22566;-71
2022/04/29 02:51:07;;;;;;;21.40;13.00;;;;;;;3.38;70.59;99709.95;220944;1274;24198;-72
2022/04/29 02:56:12;;;;;;;19.60;14.10;;;;;;;3.36;71.03;99705.40;221072;1273;25284;-71
2022/04/29 03:01:34;;;;;;;22.70;14.80;;;;;;;3.38;71.47;99706.93;221001;1274;22574;-72
2022/04/29 03:06:36;;;;;;;22.00;14.50;;;;;;;3.45;71.68;99706.78;221109;1274;22620;-70
2022/04/29 03:11:40;;;;;;;20.80;13.90;;;;;;;3.58;71.99;99707.15;221439;1274;22720;-72
2022/04/29 03:16:45;;;;;;;22.60;14.50;;;;;;;3.72;72.12;99708.23;220922;1275;22553;-72
2022/04/29 03:21:47;;;;;;;24.40;14.10;;;;;;;3.87;72.11;99720.95;221004;1277;22702;-72
2022/04/29 03:26:50;;;;;;;18.70;13.20;;;;;;;4.01;72.09;99720.92;221017;1274;23173;-72
2022/04/29 03:31:52;;;;;;;20.30;13.90;;;;;;;4.13;72.15;99721.31;221041;1274;23440;-71
2022/04/29 03:37:21;;;;;;;22.90;14.90;;;;;;;4.23;71.93;99722.49;221152;1274;22577;-72
2022/04/29 03:42:23;;;;;;;22.20;14.00;;;;;;;4.31;71.87;99716.85;221320;1277;24102;-71
2022/04/29 03:47:29;;;;;;;22.60;14.10;;;;;;;4.38;71.79;99719.70;221899;1274;24107;-71
2022/04/29 03:52:49;;;;;;;23.90;14.50;;;;;;;4.45;71.75;99716.55;221187;1275;22580;-72
2022/04/29 03:57:53;;;;;;;21.00;14.50;;;;;;;4.56;71.67;99722.52;220868;1277;22540;-73
2022/04/29 04:03:22;;;;;;;25.30;15.60;;;;;;;4.66;71.46;99726.23;221203;1274;24270;-71
2022/04/29 04:08:27;;;;;;;22.50;14.40;;;;;;;4.74;71.51;99733.02;221260;1274;24230;-71
2022/04/29 04:13:30;;;;;;;25.70;15.10;;;;;;;4.80;71.24;99728.19;221170;1277;24237;-70
2022/04/29 04:18:52;;;;;;;21.50;14.60;;;;;;;4.90;71.39;99732.05;221265;1274;25373;-72
2022/04/29 04:23:55;;;;;;;22.30;15.30;;;;;;;5.01;71.23;99734.05;221325;1277;22580;-72
2022/04/29 04:29:01;;;;;;;24.10;14.80;;;;;;;5.13;71.32;99734.23;220940;1275;22567;-71
2022/04/29 04:39:32;;;;;;;21.50;15.40;;;;;;;5.44;71.00;99740.76;219807;1274;22590;-71
2022/04/29 04:44:40;;;;;;;26.40;16.10;;;;;;;5.58;71.02;99751.23;220878;1275;22638;-71
2022/04/29 04:49:43;;;;;;;21.30;15.10;;;;;;;5.67;70.86;99751.37;220485;1278;22560;-71
2022/04/29 04:55:06;;;;;;;23.70;15.40;;;;;;;5.79;70.77;99758.46;220669;1274;22566;-70
2022/04/29 05:00:13;;;;;;;22.90;15.20;;;;;;;5.92;70.70;99761.45;220647;1279;23364;-72
2022/04/29 05:05:34;;;;;;;21.60;14.70;;;;;;;6.07;70.60;99757.80;220961;1274;22735;-72
2022/04/29 05:10:53;;;;;;;21.60;15.20;;;;;;;6.28;70.62;99755.69;221017;1274;22544;-72
2022/04/29 05:15:57;;;;;;;20.50;14.70;;;;;;;6.56;70.31;99759.52;221229;1274;23789;-72
2022/04/29 05:21:04;;;;;;;23.30;15.40;;;;;;;6.89;70.22;99759.95;223070;1274;25814;-71
2022/04/29 05:26:06;;;;;;;22.80;14.90;;;;;;;7.25;70.09;99761.14;221083;1274;22578;-72
2022/04/29 05:31:51;;;;;;;21.10;14.50;;;;;;;7.65;69.47;99758.06;220587;1275;22627;-70
2022/04/29 05:37:24;;;;;;;23.30;14.90;;;;;;;8.16;69.29;99764.95;221032;1275;22632;-73
2022/04/29 05:42:31;;;;;;;20.30;14.10;;;;;;;8.38;68.58;99767.77;221939;1277;22578;-71
2022/04/29 05:47:37;;;;;;;23.10;15.70;;;;;;;8.66;68.46;99765.07;221711;1274;22550;-72
2022/04/29 05:52:42;;;;;;;23.30;15.70;;;;;;;8.91;67.97;99769.21;222579;1273;25375;-72
2022/04/29 05:57:44;;;;;;;22.50;15.30;;;;;;;9.22;67.55;99776.66;221426;1274;23844;-72
2022/04/29 06:02:47;;;;;;;26.20;16.30;;;;;;;9.40;66.99;99781.24;221219;1274;24419;-72
2022/04/29 06:07:53;;;;;;;22.60;17.00;;;;;;;9.59;66.68;99785.08;223062;1274;22482;-71
2022/04/29 06:13:03;;;;;;;18.90;13.50;;;;;;;9.84;66.81;99784.10;221147;1275;22575;-72
2022/04/29 06:18:08;;;;;;;22.50;15.00;;;;;;;10.05;66.08;99785.99;221495;1274;25666;-70
2022/04/29 06:23:19;;;;;;;20.70;15.30;;;;;;;10.29;66.05;99784.95;219408;1274;22666;-71
2022/04/29 06:28:36;;;;;;;21.90;14.60;;;;;;;10.61;65.59;99791.52;221387;1274;23031;-71
2022/04/29 06:34:06;;;;;;;19.00;13.80;;;;;;;10.92;65.34;99791.52;221954;1274;23503;-72
2022/04/29 06:39:20;;;;;;;18.60;13.70;;;;;;;11.11;64.49;99790.27;225352;1273;24314;-71
2022/04/29 06:44:31;;;;;;;18.90;13.70;;;;;;;11.33;64.33;99787.86;221698;1273;24410;-70
2022/04/29 06:50:01;;;;;;;19.30;13.10;;;;;;;11.58;63.89;99793.71;221640;1274;22542;-72
2022/04/29 06:55:23;;;;;;;16.30;12.30;;;;;;;12.06;63.69;99805.89;221631;1274;22766;-72
2022/04/29 07:00:29;;;;;;;16.10;13.00;;;;;;;12.45;62.87;99807.44;221527;1274;26390;-71
2022/04/29 07:05:38;;;;;;;18.70;13.30;;;;;;;12.74;61.98;99812.73;221901;1274;23176;-72
2022/04/29 07:10:53;;;;;;;17.10;12.10;;;;;;;13.03;61.18;99812.66;221529;1275;22554;-71
2022/04/29 07:16:08;;;;;;;16.10;11.90;;;;;;;13.36;60.61;99812.28;221631;1274;22590;-73
2022/04/29 07:21:50;;;;;;;11.10;7.60;;;;;;;13.75;59.18;99817.35;221607;1274;22550;-71
2022/04/29 07:27:06;;;;;;;12.50;7.50;;;;;;;13.99;57.46;99819.65;223545;1273;23065;-72
2022/04/29 07:32:27;;;;;;;9.20;6.80;;;;;;;14.26;56.25;99825.13;224603;1273;23795;-72
2022/04/29 07:42:53;;;;;;;9.80;6.30;;;;;;;14.43;53.87;99823.27;221619;1273;22609;-71
2022/04/29 07:48:00;;;;;;;8.90;5.90;;;;;;;14.33;53.23;99815.61;218916;1274;25428;-72
2022/04/29 07:53:17;;;;;;;8.00;6.20;;;;;;;14.21;52.38;99818.97;221622;1274;25402;-71
2022/04/29 07:58:20;;;;;;;9.00;6.50;;;;;;;14.17;51.77;99816.17;221713;1273;22785;-71
2022/04/29 08:03:23;;;;;;;10.10;6.20;;;;;;;14.13;51.65;99812.34;221686;1274;22545;-72
2022/04/29 08:08:33;;;;;;;8.00;5.40;;;;;;;14.11;50.71;99813.16;223532;1273;23445;-73
2022/04/29 08:13:36;;;;;;;8.50;6.00;;;;;;;14.10;50.34;99807.84;221796;1274;22590;-72
2022/04/29 08:19:18;;;;;;;7.80;5.60;;;;;;;14.25;50.45;99803.80;223136;1273;25303;-72
2022/04/29 08:24:47;;;;;;;6.00;3.40;;;;;;;14.40;49.29;99798.06;221595;1274;22539;-71
2022/04/29 08:29:49;;;;;;;4.60;3.00;;;;;;;14.58;48.03;99796.50;221751;1274;23056;-72
2022/04/29 08:34:52;;;;;;;2.20;1.80;;;;;;;14.86;46.36;99796.42;221566;1274;22544;-72
2022/04/29 08:39:56;;;;;;;4.80;2.00;;;;;;;15.11;44.70;99789.30;221799;1273;22609;-74
2022/04/29 08:45:06;;;;;;;2.70;2.10;;;;;;;15.42;43.34;99784.15;221838;1274;25469;-72
2022/04/29 08:50:35;;;;;;;3.00;2.00;;;;;;;15.97;43.29;99780.48;221561;1274;24234;-73
2022/04/29 09:01:08;;;;;;;1.90;1.70;;;;;;;16.65;40.50;99785.98;221518;1274;23652;-70
2022/04/29 09:06:17;;;;;;;2.80;2.00;;;;;;;16.55;40.64;99786.21;221330;1274;22950;-71
2022/04/29 09:11:23;;;;;;;;;;;;;;;16.38;40.25;99788.41;222477;1274;22554;-72
2022/04/29 09:16:26;;;;;;;4.40;1.80;;;;;;;16.32;40.08;99785.55;221795;1273;22697;-71
2022/04/29 09:21:32;;;;;;;3.20;1.70;;;;;;;16.50;40.15;99775.88;221731;1274;25408;-71
2022/04/29 09:26:36;;;;;;;2.80;2.50;;;;;;;16.85;39.95;99773.17;221935;1273;22552;-72
2022/04/29 09:32:01;;;;;;;5.90;3.60;;;;;;;17.05;39.19;99771.28;221461;1274;24256;-71
2022/04/29 09:39:26;;;;;;;4.30;3.50;;;;;;;16.78;39.14;99765.66;221867;1274;23211;-71
2022/04/29 09:43:14;;;;;;;3.40;2.60;;;;;;;16.71;39.81;99758.98;221490;1274;22711;-71
2022/04/29 09:48:17;;;;;;;3.10;2.40;;;;;;;16.92;38.76;99758.42;221288;1274;25365;-71
2022/04/29 09:53:25;;;;;;;3.60;3.20;;;;;;;16.90;38.26;99752.89;221742;1274;22598;-71
2022/04/29 09:58:27;;;;;;;4.00;3.30;;;;;;;17.07;38.56;99747.35;221390;1274;22667;-71
2022/04/29 10:03:35;;;;;;;5.60;3.70;;;;;;;17.37;38.76;99750.57;221813;1273;23776;-71
2022/04/29 10:08:41;;;;;;;6.50;3.50;;;;;;;17.53;38.84;99747.40;221662;1273;23729;-71
2022/04/29 10:13:45;;;;;;;4.00;3.50;;;;;;;17.63;38.84;99752.52;222600;1273;22560;-73
2022/04/29 10:25:00;;;;;;;7.00;3.10;;;;;;;18.09;38.65;99735.13;221814;1273;22700;-72
2022/04/29 10:30:02;;;;;;;4.10;3.40;;;;;;;18.38;38.06;99731.09;222258;1274;22575;-71
2022/04/29 10:35:42;;;;;;;3.60;3.20;;;;;;;18.25;37.73;99737.39;221885;1273;22633;-69
2022/04/29 10:40:45;;;;;;;;;;;;;;;17.97;37.48;99732.86;221905;1273;22533;-70
2022/04/29 10:46:05;;;;;;;3.90;3.00;;;;;;;17.73;37.45;99726.39;221546;1274;22566;-71
2022/04/29 10:51:25;;;;;;;3.70;3.30;;;;;;;17.73;37.77;99723.93;222985;1273;22563;-70
2022/04/29 10:56:59;;;;;;;3.70;2.90;;;;;;;17.75;38.04;99722.77;221642;1273;26309;-70
2022/04/29 11:02:14;;;;;;;5.20;3.90;;;;;;;17.85;38.08;99713.17;222864;1274;22547;-69
2022/04/29 11:07:46;;;;;;;3.90;2.90;;;;;;;17.62;37.72;99710.70;219205;1274;23458;-70
2022/04/29 11:13:03;;;;;;;4.20;3.20;;;;;;;17.28;37.83;99714.13;220553;1274;26447;-70
2022/04/29 11:18:23;;;;;;;5.80;2.80;;;;;;;17.31;38.18;99708.21;221360;1273;22569;-71
2022/04/29 11:28:54;;;;;;;3.80;2.80;;;;;;;18.04;37.84;99686.84;219388;1274;22578;-70
2022/04/29 11:34:13;;;;;;;2.90;1.90;;;;;;;18.48;37.48;99681.09;221143;1274;25382;-71
2022/04/29 11:39:17;;;;;;;6.00;3.30;;;;;;;18.81;37.02;99680.30;219143;1273;25257;-70
2022/04/29 11:44:42;;;;;;;3.30;2.20;;;;;;;19.12;36.55;99677.05;221421;1274;22576;-70
2022/04/29 11:49:45;;;;;;;2.40;1.90;;;;;;;19.10;35.13;99675.81;221347;1274;25538;-71
2022/04/29 11:54:55;;;;;;;2.90;2.20;;;;;;;19.01;34.88;99667.98;221389;1273;22732;-70
2022/04/29 12:00:02;;;;;;;2.40;2.20;;;;;;;18.95;34.80;99662.84;219264;1274;22588;-69
2022/04/29 12:05:13;;;;;;;3.20;2.80;;;;;;;18.55;34.61;99654.73;221411;1273;189953;-70
2022/04/29 12:10:26;;;;;;;3.00;2.30;;;;;;;18.38;34.76;99652.34;220933;1274;23025;-71
2022/04/29 12:15:31;;;;;;;4.80;2.80;;;;;;;18.39;34.48;99651.25;221911;1273;22547;-70
2022/04/29 12:20:55;;;;;;;2.90;2.60;;;;;;;18.38;34.64;99640.05;221136;1274;22485;-71
2022/04/29 12:26:07;;;;;;;2.80;2.30;;;;;;;18.43;34.42;99634.42;221218;1274;23390;-71
2022/04/29 12:36:57;;;;;;;4.10;2.50;;;;;;;18.73;34.16;99623.87;219329;1274;22550;-70
2022/04/29 12:42:17;;;;;;;2.60;2.40;;;;;;;18.93;33.78;99623.45;221520;1273;24141;-70
2022/04/29 12:47:31;;;;;;;;;;;;;;;19.10;33.40;99620.73;222607;1274;22620;-71
2022/04/29 12:53:00;;;;;;;2.90;2.50;;;;;;;19.06;33.61;99622.58;221315;1274;22547;-69
2022/04/29 12:58:26;;;;;;;3.60;2.80;;;;;;;18.75;33.72;99620.33;221314;1274;22595;-70
2022/04/29 13:04:00;;;;;;;3.10;2.70;;;;;;;18.41;34.33;99617.14;222302;1273;22575;-71
2022/04/29 13:09:22;;;;;;;3.00;2.30;;;;;;;18.30;34.75;99608.52;221248;1275;22628;-71
2022/04/29 13:14:51;;;;;;;3.60;2.50;;;;;;;18.41;34.97;99597.00;221328;1273;22586;-70
2022/04/29 13:19:56;;;;;;;4.10;2.80;;;;;;;18.47;34.72;99598.90;219541;1274;24154;-69
2022/04/29 13:25:24;;;;;;;3.10;2.70;;;;;;;18.35;33.98;99589.06;219351;1274;22644;-69
2022/04/29 13:30:39;;;;;;;3.80;3.40;;;;;;;18.33;34.51;99588.42;220063;1273;24192;-70
2022/04/29 13:36:08;;;;;;;4.10;2.90;;;;;;;18.41;34.72;99582.27;221633;1274;24834;-70
2022/04/29 13:41:11;;;;;;;3.80;3.10;;;;;;;18.26;34.96;99578.82;222858;1273;22580;-70
2022/04/29 13:46:16;;;;;;;5.20;3.10;;;;;;;18.07;34.94;99572.48;221363;1274;23340;-70
2022/04/29 13:51:30;;;;;;;5.20;3.60;;;;;;;17.92;35.19;99575.01;221414;1274;22544;-72
2022/04/29 13:56:36;;;;;;;3.80;3.10;;;;;;;17.81;35.51;99569.15;220951;1273;24246;-71
2022/04/29 14:01:49;;;;;;;4.50;3.00;;;;;;;17.59;35.47;99558.91;221746;1273;23835;-72
2022/04/29 14:07:07;;;;;;;3.30;3.00;;;;;;;17.35;36.05;99551.91;221744;1274;25354;-72
2022/04/29 14:12:27;;;;;;;4.30;3.10;;;;;;;17.14;36.13;99548.21;221015;1274;25404;-72
2022/04/29 14:17:41;;;;;;;7.10;4.40;;;;;;;16.99;36.42;99549.65;221285;1274;22669;-72
2022/04/29 14:22:47;;;;;;;3.70;2.80;;;;;;;16.87;36.35;99552.64;221023;1274;23742;-72
2022/04/29 14:27:51;;;;;;;5.90;3.00;;;;;;;16.79;36.42;99550.27;221066;1273;26250;-71
2022/04/29 14:32:54;;;;;;;4.60;2.80;;;;;;;16.81;36.95;99546.09;221203;1274;22565;-72
2022/04/29 14:37:56;;;;;;;3.50;2.90;;;;;;;16.77;37.17;99548.09;221138;1273;25212;-71
2022/04/29 14:43:05;;;;;;;3.70;2.80;;;;;;;16.71;37.13;99546.27;221140;1274;22546;-71
2022/04/29 14:48:12;;;;;;;3.80;2.90;;;;;;;16.66;37.04;99541.27;220910;1273;22693;-72
2022/04/29 14:53:33;;;;;;;4.30;3.00;;;;;;;16.62;37.44;99535.70;220974;1274;25317;-71
2022/04/29 14:58:50;;;;;;;4.20;2.80;;;;;;;16.56;37.64;99526.21;221036;1273;22573;-71
2022/04/29 15:03:52;;;;;;;3.80;2.40;;;;;;;16.45;37.49;99526.81;221718;1273;23398;-72
2022/04/29 15:19:51;;;;;;;8.90;3.10;;;;;;;15.92;38.17;99519.81;220926;1274;23929;-70
2022/04/29 15:24:53;;;;;;;4.80;2.40;;;;;;;15.77;38.49;99511.07;219686;1273;22708;-72
2022/04/29 15:29:56;;;;;;;4.20;2.60;;;;;;;15.66;39.05;99510.16;221360;1273;24301;-72
2022/04/29 15:35:01;;;;;;;5.30;2.70;;;;;;;15.56;39.34;99506.27;221201;1273;22678;-71
2022/04/29 15:40:04;;;;;;;12.00;3.20;;;;;;;15.47;39.68;99503.13;221159;1274;25314;-72
2022/04/29 15:45:19;;;;;;;13.10;3.60;;;;;;;15.36;39.85;99501.02;220966;1274;22727;-70
2022/04/29 15:50:38;;;;;;;9.90;3.50;;;;;;;15.25;39.89;99500.59;221231;1274;24341;-71
2022/04/29 15:56:03;;;;;;;3.10;2.70;;;;;;;15.11;40.06;99504.23;220773;1276;22601;-71
2022/04/29 16:01:39;;;;;;;3.60;2.60;;;;;;;14.98;40.53;99501.80;221207;1276;26461;-71
2022/04/29 16:07:02;;;;;;;5.90;3.00;;;;;;;14.86;40.78;99501.36;220817;1274;22552;-72
2022/04/29 16:12:05;;;;;;;4.60;3.40;;;;;;;14.74;40.91;99502.67;220804;1273;22728;-71
2022/04/29 16:17:11;;;;;;;5.10;3.20;;;;;;;14.63;40.90;99496.59;221456;1273;22707;-71
2022/04/29 16:22:13;;;;;;;7.00;4.20;;;;;;;14.56;41.16;99499.52;221117;1273;23250;-72
2022/04/29 16:27:21;;;;;;;6.60;4.50;;;;;;;14.55;41.19;99499.04;220661;1275;22889;-72
2022/04/29 16:32:36;;;;;;;6.40;4.80;;;;;;;14.68;41.38;99492.68;221005;1274;23304;-71
2022/04/29 16:37:43;;;;;;;9.00;5.30;;;;;;;14.85;41.37;99488.55;220804;1274;24260;-73
2022/04/29 16:42:57;;;;;;;6.30;4.40;;;;;;;15.00;41.27;99487.46;220830;1273;25266;-71
2022/04/29 16:48:08;;;;;;;7.70;4.00;;;;;;;15.10;41.09;99491.83;220908;1274;22576;-72
2022/04/29 16:53:11;;;;;;;6.00;3.30;;;;;;;15.14;40.91;99493.36;220770;1275;25529;-72
2022/04/29 16:58:45;;;;;;;5.00;3.80;;;;;;;15.10;40.78;99500.59;220710;1274;25478;-72
2022/04/29 17:03:53;;;;;;;8.00;4.90;;;;;;;15.05;40.96;99498.94;220843;1276;24393;-70
2022/04/29 17:09:01;;;;;;;5.60;4.60;;;;;;;15.01;41.20;99494.27;221258;1274;22579;-74
2022/04/29 17:14:03;;;;;;;6.80;4.50;;;;;;;15.00;41.17;99498.41;220960;1274;22684;-70
2022/04/29 17:19:15;;;;;;;8.50;4.60;;;;;;;14.97;41.07;99496.40;220903;1274;22575;-72
2022/04/29 17:24:27;;;;;;;7.30;4.60;;;;;;;14.91;41.34;99500.62;220969;1273;23399;-71
2022/04/29 17:29:30;;;;;;;8.80;5.10;;;;;;;14.78;41.35;99501.79;220633;1276;22732;-71
2022/04/29 17:34:42;;;;;;;6.80;4.90;;;;;;;14.59;41.40;99507.73;220886;1276;22544;-72
2022/04/29 17:45:21;;;;;;;5.00;3.40;;;;;;;14.09;42.16;99506.36;220884;1276;22548;-71
2022/04/29 17:50:51;;;;;;;4.50;3.60;;;;;;;13.80;42.29;99506.10;220992;1274;24799;-71
2022/04/29 17:56:12;;;;;;;4.10;3.00;;;;;;;13.53;42.81;99507.30;223454;1274;23065;-71
2022/04/29 18:01:15;;;;;;;4.20;3.30;;;;;;;13.26;43.11;99511.00;222907;1276;22547;-71
2022/04/29 18:06:29;;;;;;;7.40;3.80;;;;;;;13.00;43.44;99511.57;220651;1277;22678;-71
2022/04/29 18:11:36;;;;;;;7.10;3.90;;;;;;;12.72;43.80;99512.18;221259;1273;22639;-72
2022/04/29 18:16:38;;;;;;;5.10;3.90;;;;;;;12.47;43.98;99520.52;220828;1273;24485;-72
2022/04/29 18:21:40;;;;;;;6.50;4.20;;;;;;;12.27;44.38;99521.73;221241;1274;24778;-71
2022/04/29 18:26:46;;;;;;;13.70;6.40;;;;;;;12.06;44.54;99521.17;220879;1274;25401;-72
2022/04/29 18:31:48;;;;;;;15.60;9.50;;;;;;;11.86;44.82;99522.41;220852;1276;25385;-72
2022/04/29 18:36:51;;;;;;;18.60;9.30;;;;;;;11.67;45.09;99529.92;220888;1274;22567;-72
2022/04/29 18:41:59;;;;;;;14.90;8.40;;;;;;;11.50;45.57;99534.09;220692;1275;22568;-72
2022/04/29 18:47:06;;;;;;;12.40;6.90;;;;;;;11.34;45.67;99535.17;221350;1274;22627;-71
2022/04/29 18:52:20;;;;;;;9.40;6.30;;;;;;;11.20;45.89;99543.06;220759;1276;23830;-71
2022/04/29 18:57:22;;;;;;;10.10;5.90;;;;;;;11.07;45.96;99545.46;220874;1276;26391;-71
2022/04/29 19:02:28;;;;;;;11.70;7.00;;;;;;;10.98;46.34;99545.16;221412;1274;26521;-72
2022/04/29 19:07:32;;;;;;;16.10;8.80;;;;;;;10.91;46.51;99547.32;221525;1277;22553;-71
2022/04/29 19:12:44;;;;;;;18.30;11.30;;;;;;;10.82;46.86;99549.80;221441;1274;22626;-71
2022/04/29 19:17:53;;;;;;;20.80;13.70;;;;;;;10.76;47.15;99544.89;221181;1274;22528;-71
2022/04/29 19:22:55;;;;;;;20.00;11.50;;;;;;;10.74;47.16;99545.48;221081;1274;22570;-71
2022/04/29 19:27:57;;;;;;;12.50;8.70;;;;;;;10.68;47.31;99546.98;220827;1275;22563;-72
2022/04/29 19:33:03;;;;;;;13.50;8.50;;;;;;;10.64;47.42;99546.18;221157;1274;23273;-72
2022/04/29 19:38:09;;;;;;;15.20;9.10;;;;;;;10.56;47.77;99553.95;220862;1276;22557;-72
2022/04/29 19:43:11;;;;;;;14.30;8.10;;;;;;;10.45;47.95;99556.05;220864;1275;24738;-72
2022/04/29 19:48:16;;;;;;;11.10;7.50;;;;;;;10.34;48.06;99554.52;220655;1276;23065;-72
2022/04/29 19:53:33;;;;;;;11.70;7.20;;;;;;;10.23;48.22;99552.27;220767;1277;22566;-71
2022/04/29 20:03:57;;;;;;;18.70;8.60;;;;;;;9.92;49.27;99553.23;220661;1276;25373;-71
2022/04/29 20:09:02;;;;;;;21.60;12.90;;;;;;;9.79;49.43;99551.92;220565;1277;22633;-71
2022/04/29 20:14:08;;;;;;;18.70;9.60;;;;;;;9.68;49.91;99552.84;221289;1274;22694;-72
2022/04/29 20:19:13;;;;;;;14.50;8.70;;;;;;;9.57;50.20;99552.70;220707;1274;24275;-71
2022/04/29 20:24:17;;;;;;;12.50;7.70;;;;;;;9.46;50.12;99548.19;221270;1273;22549;-72
2022/04/29 20:29:21;;;;;;;10.40;6.10;;;;;;;9.38;50.08;99549.80;221106;1277;24314;-72
2022/04/29 20:34:27;;;;;;;8.70;5.80;;;;;;;9.37;50.07;99542.58;220582;1276;23124;-71
2022/04/29 20:45:09;;;;;;;13.50;6.50;;;;;;;9.57;49.89;99542.12;221321;1275;22537;-71
2022/04/29 20:50:15;;;;;;;12.00;6.80;;;;;;;9.57;49.66;99542.08;219249;1275;23300;-71
2022/04/29 20:55:22;;;;;;;16.20;8.30;;;;;;;9.54;49.69;99544.90;220958;1276;24416;-71
2022/04/29 21:00:41;;;;;;;13.30;7.60;;;;;;;9.52;49.74;99545.20;220893;1274;22601;-72
2022/04/29 21:06:19;;;;;;;15.10;8.90;;;;;;;9.47;49.69;99543.52;220746;1275;22731;-71
2022/04/29 21:11:40;;;;;;;12.90;8.30;;;;;;;9.41;49.75;99540.63;220805;1275;25127;-73
2022/04/29 21:16:42;;;;;;;11.20;7.00;;;;;;;9.40;49.86;99548.16;220874;1278;25453;-71
2022/04/29 21:22:06;;;;;;;12.50;7.50;;;;;;;9.36;49.92;99549.64;219575;1274;25454;-71
2022/04/29 21:27:25;;;;;;;;;;;;;;;;;;;;;
2022/04/29 21:32:33;;;;;;;14.30;8.00;;;;;;;9.12;50.34;99549.36;221103;1277;27370;-71
2022/04/29 21:37:39;;;;;;;19.50;10.00;;;;;;;8.85;51.37;99549.95;221392;1274;22581;-71
2022/04/29 21:42:49;;;;;;;19.30;10.30;;;;;;;8.52;52.03;99553.02;221445;1275;22794;-70
2022/04/29 21:48:06;;;;;;;15.60;10.10;;;;;;;8.22;53.07;99554.63;220615;1277;25372;-71
2022/04/29 21:53:17;;;;;;;19.20;11.20;;;;;;;7.97;53.38;99556.05;220702;1275;22617;-70
2022/04/29 21:58:22;;;;;;;16.60;11.00;;;;;;;7.77;53.61;99553.34;220765;1275;22559;-71
2022/04/29 22:03:31;;;;;;;19.20;11.50;;;;;;;7.58;54.05;99551.48;220791;1274;22561;-72
2022/04/29 22:08:37;;;;;;;18.80;10.60;;;;;;;7.42;54.21;99550.31;220846;1277;22590;-72
2022/04/29 22:13:40;;;;;;;16.00;10.60;;;;;;;7.25;54.56;99544.52;220924;1274;22670;-72
2022/04/29 22:18:42;;;;;;;13.40;9.20;;;;;;;7.10;55.51;99546.89;220932;1274;25393;-71
2022/04/29 22:23:47;;;;;;;13.60;8.80;;;;;;;6.94;55.90;99547.25;221214;1274;23969;-71
2022/04/29 22:28:53;;;;;;;12.60;8.40;;;;;;;6.80;55.95;99548.55;221318;1274;22560;-72
2022/04/29 22:34:05;;;;;;;15.90;9.60;;;;;;;6.67;56.29;99546.11;221088;1277;22708;-71
2022/04/29 22:39:16;;;;;;;16.10;10.10;;;;;;;6.52;57.14;99545.02;221056;1274;22720;-70
2022/04/29 22:44:38;;;;;;;15.30;9.60;;;;;;;6.38;57.47;99538.08;220801;1276;22561;-72
2022/04/29 22:49:41;;;;;;;13.20;9.50;;;;;;;6.27;57.39;99529.95;220817;1274;22512;-72
2022/04/29 22:54:44;;;;;;;19.30;10.70;;;;;;;6.15;58.05;99525.60;220823;1274;23125;-72
2022/04/29 22:59:47;;;;;;;17.70;11.20;;;;;;;6.05;58.27;99519.05;220956;1275;22600;-71
2022/04/29 23:04:52;;;;;;;17.70;11.60;;;;;;;5.95;58.73;99519.94;220757;1278;22537;-70
2022/04/29 23:09:58;;;;;;;28.90;15.20;;;;;;;5.86;59.16;99519.39;220920;1274;24224;-72
2022/04/29 23:15:02;;;;;;;37.70;20.30;;;;;;;5.78;59.30;99518.38;220982;1274;22580;-71
2022/04/29 23:20:11;;;;;;;40.20;21.50;;;;;;;5.70;59.47;99519.20;221127;1274;22952;-72
2022/04/29 23:25:14;;;;;;;37.40;18.70;;;;;;;5.61;59.71;99517.98;220992;1274;23009;-71
2022/04/29 23:30:17;;;;;;;43.70;19.40;;;;;;;5.52;60.49;99522.16;220584;1274;22687;-70
2022/04/29 23:35:26;;;;;;;36.40;18.90;;;;;;;5.41;60.69;99525.89;221050;1274;22553;-71
2022/04/29 23:40:32;;;;;;;34.20;18.30;;;;;;;5.31;61.05;99517.92;220976;1273;25755;-71
2022/04/29 23:45:34;;;;;;;35.00;18.50;;;;;;;5.20;61.66;99512.84;221485;1274;22729;-70
2022/04/29 23:50:36;;;;;;;35.40;17.90;;;;;;;5.10;61.87;99513.95;220831;1274;22562;-71
2022/04/29 23:55:39;;;;;;;28.50;14.60;;;;;;;5.02;62.29;99512.97;220653;1275;22557;-71
